createdAt,value
2022-11-16T07:49:33.836Z,17.25
2022-11-16T07:52:00.841Z,17.08
2022-11-16T07:54:27.572Z,19.17
2022-11-16T07:56:54.371Z,20.88
2022-11-16T07:59:21.260Z,20.00
2022-11-16T08:01:48.431Z,17.65
2022-11-16T08:04:17.553Z,17.15
2022-11-16T08:06:44.820Z,16.43
2022-11-16T08:09:12.001Z,15.35
2022-11-16T08:11:39.220Z,15.45
2022-11-16T08:14:06.041Z,17.90
2022-11-16T08:16:33.444Z,18.15
2022-11-16T08:19:02.379Z,17.90
2022-11-16T08:21:29.232Z,16.62
2022-11-16T08:23:58.682Z,16.30
2022-11-16T08:26:26.306Z,16.83
2022-11-16T08:28:54.041Z,16.45
2022-11-16T08:31:24.570Z,15.37
2022-11-16T08:33:54.400Z,16.25
2022-11-16T08:36:21.699Z,16.50
2022-11-16T08:38:50.600Z,16.50
2022-11-16T08:41:18.571Z,15.80
2022-11-16T08:43:47.300Z,15.73
2022-11-16T08:46:14.860Z,15.40
2022-11-16T08:48:41.753Z,14.90
2022-11-16T08:51:19.331Z,15.98
2022-11-16T08:53:48.501Z,14.70
2022-11-16T08:56:17.627Z,14.77
2022-11-16T08:58:47.073Z,14.02
2022-11-16T09:01:17.410Z,14.95
2022-11-16T09:03:44.404Z,14.57
2022-11-16T09:06:12.289Z,14.45
2022-11-16T09:08:40.551Z,15.53
2022-11-16T09:11:09.103Z,15.88
2022-11-16T09:13:36.010Z,14.57
2022-11-16T09:16:03.531Z,13.65
2022-11-16T09:18:30.886Z,15.07
2022-11-16T09:20:58.218Z,14.03
2022-11-16T09:23:25.821Z,14.25
2022-11-16T09:25:53.402Z,14.40
2022-11-16T09:28:22.678Z,15.93
2022-11-16T09:30:51.376Z,14.25
2022-11-16T09:33:18.433Z,15.23
2022-11-16T09:35:45.489Z,15.68
2022-11-16T09:38:17.673Z,15.85
2022-11-16T09:40:51.540Z,14.02
2022-11-16T09:43:18.284Z,15.35
2022-11-16T09:46:05.469Z,15.40
2022-11-16T09:48:36.418Z,15.00
2022-11-16T09:51:08.357Z,15.38
2022-11-16T09:53:50.993Z,14.73
2022-11-16T09:56:26.368Z,14.95
2022-11-16T09:59:01.167Z,15.43
2022-11-16T10:01:54.617Z,14.23
2022-11-16T10:05:06.550Z,14.87
2022-11-16T10:07:41.785Z,14.20
2022-11-16T10:10:16.978Z,14.77
2022-11-16T10:13:00.311Z,15.10
2022-11-16T10:15:42.270Z,15.45
2022-11-16T10:18:08.982Z,14.90
2022-11-16T10:21:21.520Z,14.07
2022-11-16T10:23:54.416Z,15.07
2022-11-16T10:26:48.290Z,14.17
2022-11-16T10:29:37.802Z,16.95
2022-11-16T10:32:17.481Z,15.18
2022-11-16T10:34:44.227Z,15.25
2022-11-16T10:37:13.375Z,14.85
2022-11-16T10:39:41.179Z,14.73
2022-11-16T10:42:21.620Z,14.52
2022-11-16T10:44:58.701Z,14.05
2022-11-16T10:47:36.848Z,14.50
2022-11-16T10:50:19.945Z,13.90
2022-11-16T10:52:46.676Z,13.17
2022-11-16T10:55:24.473Z,14.48
2022-11-16T10:57:58.266Z,14.23
2022-11-16T11:00:44.307Z,15.05
2022-11-16T11:03:12.134Z,13.60
2022-11-16T11:05:53.372Z,15.03
2022-11-16T11:08:31.151Z,14.32
2022-11-16T11:11:25.573Z,14.23
2022-11-16T11:14:11.652Z,16.30
2022-11-16T11:16:41.868Z,15.60
2022-11-16T11:19:19.101Z,14.33
2022-11-16T11:21:47.406Z,14.70
2022-11-16T11:24:43.232Z,14.15
2022-11-16T11:27:04.763Z,14.23
2022-11-16T11:29:35.132Z,14.25
2022-11-16T11:32:19.323Z,14.37
2022-11-16T11:35:00.398Z,14.55
2022-11-16T11:37:36.512Z,14.20
2022-11-16T11:40:24.868Z,14.15
2022-11-16T11:42:56.364Z,15.18
2022-11-16T11:45:27.909Z,14.97
2022-11-16T11:48:06.972Z,15.25
2022-11-16T11:50:50.076Z,15.68
2022-11-16T11:53:35.666Z,15.40
2022-11-16T11:56:03.156Z,15.00
2022-11-16T11:58:33.028Z,13.90
2022-11-16T12:01:22.314Z,15.05
2022-11-16T12:04:18.437Z,14.77
2022-11-16T12:07:03.699Z,15.02
2022-11-16T12:09:40.872Z,15.60
2022-11-16T12:12:22.721Z,15.80
2022-11-16T12:15:45.905Z,15.75
2022-11-16T12:18:27.107Z,15.32
2022-11-16T12:20:59.537Z,14.98
2022-11-16T12:23:49.028Z,14.87
2022-11-16T12:26:24.610Z,15.43
2022-11-16T12:29:00.535Z,14.60
2022-11-16T12:31:42.482Z,17.58
2022-11-16T12:34:37.050Z,16.65
2022-11-16T12:37:16.129Z,14.77
2022-11-16T12:40:20.705Z,15.67
2022-11-16T12:42:57.428Z,15.70
2022-11-16T12:45:32.404Z,16.33
2022-11-16T12:48:05.184Z,15.95
2022-11-16T12:50:45.364Z,15.18
2022-11-16T12:53:34.884Z,16.37
2022-11-16T12:56:16.904Z,15.75
2022-11-16T12:58:54.476Z,16.12
2022-11-16T13:01:44.668Z,14.63
2022-11-16T13:04:18.025Z,14.93
2022-11-16T13:06:54.068Z,15.53
2022-11-16T13:09:25.683Z,16.25
2022-11-16T13:11:56.054Z,15.88
2022-11-16T13:14:32.731Z,14.43
2022-11-16T13:17:02.620Z,14.80
2022-11-16T13:19:30.134Z,15.73
2022-11-16T13:22:07.597Z,15.52
2022-11-16T13:24:49.711Z,15.95
2022-11-16T13:27:31.157Z,15.40
2022-11-16T13:30:19.286Z,15.27
2022-11-16T13:33:26.783Z,15.93
2022-11-16T13:35:53.703Z,16.55
2022-11-16T13:38:53.192Z,16.73
2022-11-16T13:41:37.376Z,17.60
2022-11-16T13:44:13.201Z,16.75
2022-11-16T13:46:55.692Z,16.97
2022-11-16T13:49:27.668Z,18.33
2022-11-16T13:52:17.198Z,17.85
2022-11-16T13:54:52.152Z,16.80
2022-11-16T13:57:27.208Z,16.30
2022-11-16T14:00:03.955Z,17.20
2022-11-16T14:02:35.073Z,17.73
2022-11-16T14:05:33.998Z,16.45
2022-11-16T14:08:24.009Z,16.80
2022-11-16T14:10:50.688Z,18.30
2022-11-16T14:13:47.288Z,18.47
2022-11-16T14:16:20.152Z,17.00
2022-11-16T14:18:58.973Z,16.25
2022-11-16T14:21:26.755Z,16.67
2022-11-16T14:24:21.673Z,17.12
2022-11-16T14:27:06.436Z,17.03
2022-11-16T14:30:02.648Z,16.55
2022-11-16T14:32:36.988Z,16.40
2022-11-16T14:35:22.796Z,16.65
2022-11-16T14:37:58.547Z,16.73
2022-11-16T14:40:25.843Z,16.50
2022-11-16T14:43:20.012Z,15.70
2022-11-16T14:45:52.986Z,17.12
2022-11-16T14:48:22.186Z,17.42
2022-11-16T14:51:10.775Z,19.73
2022-11-16T14:53:41.384Z,22.67
2022-11-16T14:56:17.087Z,23.52
2022-11-16T14:59:01.430Z,20.12
2022-11-16T15:01:39.024Z,18.23
2022-11-16T15:04:11.219Z,17.05
2022-11-16T15:07:03.767Z,16.20
2022-11-16T15:09:37.796Z,15.65
2022-11-16T15:12:26.239Z,16.87
2022-11-16T15:14:56.725Z,18.00
2022-11-16T15:17:31.943Z,21.10
2022-11-16T15:20:02.576Z,35.10
2022-11-16T15:22:31.887Z,43.60
2022-11-16T15:25:00.843Z,29.45
2022-11-16T15:27:28.083Z,22.98
2022-11-16T15:29:55.000Z,21.50
2022-11-16T15:32:21.850Z,19.93
2022-11-16T15:34:53.143Z,20.65
2022-11-16T15:37:30.089Z,17.90
2022-11-16T15:39:58.567Z,17.85
2022-11-16T15:42:28.169Z,19.20
2022-11-16T15:44:56.157Z,22.13
2022-11-16T15:47:23.656Z,21.85
2022-11-16T15:49:53.070Z,23.17
2022-11-16T15:52:43.457Z,22.33
2022-11-16T15:55:31.947Z,21.10
2022-11-16T15:58:07.816Z,22.17
2022-11-16T16:00:37.036Z,20.02
2022-11-16T16:03:24.319Z,19.62
2022-11-16T16:05:52.728Z,18.98
2022-11-16T16:08:36.356Z,18.33
2022-11-16T16:11:27.344Z,18.40
2022-11-16T16:14:00.163Z,18.75
2022-11-16T16:16:38.298Z,19.35
2022-11-16T16:19:23.575Z,18.17
2022-11-16T16:21:50.611Z,18.08
2022-11-16T16:24:46.302Z,19.83
2022-11-16T16:27:15.002Z,16.92
2022-11-16T16:29:42.127Z,17.15
2022-11-16T16:32:16.160Z,16.27
2022-11-16T16:34:43.013Z,16.70
2022-11-16T16:37:13.018Z,17.20
2022-11-16T16:39:41.007Z,16.60
2022-11-16T16:42:10.643Z,17.10
2022-11-16T16:44:37.809Z,18.02
2022-11-16T16:47:04.915Z,16.98
2022-11-16T16:49:31.783Z,17.37
2022-11-16T16:51:58.712Z,18.50
2022-11-16T16:54:25.663Z,17.15
2022-11-16T16:56:52.508Z,16.58
2022-11-16T16:59:19.352Z,17.02
2022-11-16T17:01:46.282Z,14.53
2022-11-16T17:04:13.031Z,13.73
2022-11-16T17:06:46.204Z,15.30
2022-11-16T17:09:14.038Z,14.38
2022-11-16T17:11:40.868Z,16.85
2022-11-16T17:14:08.560Z,18.73
2022-11-16T17:16:36.357Z,22.48
2022-11-16T17:19:04.431Z,20.52
2022-11-16T17:21:32.228Z,24.73
2022-11-16T17:23:59.328Z,27.00
2022-11-16T17:26:29.523Z,37.90
2022-11-16T17:28:57.573Z,39.15
2022-11-16T17:31:25.861Z,49.63
2022-11-16T17:33:53.188Z,23.02
2022-11-16T17:36:20.590Z,21.00
2022-11-16T17:38:47.505Z,16.93
2022-11-16T17:41:17.314Z,15.18
2022-11-16T17:43:46.046Z,15.32
2022-11-16T17:46:18.720Z,14.50
2022-11-16T17:48:47.461Z,14.52
2022-11-16T17:51:17.212Z,14.63
2022-11-16T17:53:44.753Z,13.68
2022-11-16T17:56:14.305Z,14.93
2022-11-16T17:58:42.266Z,15.45
2022-11-16T18:01:09.543Z,16.05
2022-11-16T18:03:37.821Z,15.97
2022-11-16T18:06:08.064Z,15.88
2022-11-16T18:08:36.891Z,16.45
2022-11-16T18:11:18.346Z,15.77
2022-11-16T18:13:46.206Z,16.08
2022-11-16T18:16:19.537Z,16.57
2022-11-16T18:18:47.969Z,15.73
2022-11-16T18:21:20.773Z,16.42
2022-11-16T18:23:48.646Z,15.52
2022-11-16T18:26:19.630Z,16.67
2022-11-16T18:28:48.460Z,16.57
2022-11-16T18:31:18.102Z,15.80
2022-11-16T18:33:45.951Z,16.02
2022-11-16T18:36:13.681Z,15.18
2022-11-16T18:38:41.004Z,17.08
2022-11-16T18:41:14.510Z,17.07
2022-11-16T18:43:47.891Z,16.50
2022-11-16T18:46:15.339Z,17.48
2022-11-16T18:48:43.861Z,18.17
2022-11-16T18:51:11.912Z,15.73
2022-11-16T18:53:39.312Z,17.67
2022-11-16T18:56:06.823Z,17.83
2022-11-16T18:58:50.797Z,16.67
2022-11-16T19:01:24.494Z,15.85
2022-11-16T19:03:53.610Z,15.27
2022-11-16T19:06:21.052Z,15.60
2022-11-16T19:08:56.037Z,14.98
2022-11-16T19:11:27.599Z,15.70
2022-11-16T19:13:57.506Z,14.98
2022-11-16T19:16:25.553Z,15.00
2022-11-16T19:18:53.282Z,14.23
2022-11-16T19:21:22.353Z,14.48
2022-11-16T19:23:52.412Z,14.15
2022-11-16T19:26:21.465Z,13.82
2022-11-16T19:28:50.401Z,13.88
2022-11-16T19:31:19.110Z,14.83
2022-11-16T19:33:46.728Z,15.07
2022-11-16T19:36:19.289Z,14.65
2022-11-16T19:38:48.363Z,15.38
2022-11-16T19:41:18.409Z,16.55
2022-11-16T19:43:45.692Z,16.17
2022-11-16T19:46:19.749Z,16.23
2022-11-16T19:48:49.383Z,15.65
2022-11-16T19:51:19.740Z,15.73
2022-11-16T19:53:47.447Z,16.45
2022-11-16T19:56:16.419Z,15.13
2022-11-16T19:58:43.822Z,14.35
2022-11-16T20:01:17.547Z,13.52
2022-11-16T20:03:46.000Z,13.13
2022-11-16T20:06:16.143Z,12.07
2022-11-16T20:08:48.545Z,11.13
2022-11-16T20:11:43.276Z,11.38
2022-11-16T20:14:12.840Z,11.70
2022-11-16T20:16:46.275Z,10.60
2022-11-16T20:19:13.630Z,11.32
2022-11-16T20:21:44.020Z,11.30
2022-11-16T20:24:14.107Z,11.52
2022-11-16T20:26:48.362Z,11.70
2022-11-16T20:29:17.971Z,11.68
2022-11-16T20:31:46.348Z,11.12
2022-11-16T20:34:16.069Z,10.63
2022-11-16T20:36:45.737Z,10.27
2022-11-16T20:39:29.349Z,10.90
2022-11-16T20:41:56.713Z,10.05
2022-11-16T20:44:23.850Z,9.98
2022-11-16T20:46:52.865Z,9.60
2022-11-16T20:49:19.790Z,9.55
2022-11-16T20:51:47.833Z,10.13
2022-11-16T20:54:15.334Z,9.75
2022-11-16T20:56:42.525Z,9.48
2022-11-16T20:59:09.686Z,9.53
2022-11-16T21:01:37.285Z,10.15
2022-11-16T21:04:06.295Z,10.00
2022-11-16T21:06:33.730Z,9.52
2022-11-16T21:09:01.961Z,9.63
2022-11-16T21:11:31.206Z,10.73
2022-11-16T21:14:16.333Z,13.65
2022-11-16T21:16:43.585Z,11.25
2022-11-16T21:19:11.717Z,10.77
2022-11-16T21:21:40.647Z,10.35
2022-11-16T21:24:10.792Z,10.77
2022-11-16T21:26:38.066Z,12.90
2022-11-16T21:29:05.377Z,14.87
2022-11-16T21:31:34.218Z,13.23
2022-11-16T21:34:01.337Z,13.27
2022-11-16T21:36:30.325Z,19.97
2022-11-16T21:39:00.551Z,14.98
2022-11-16T21:41:27.761Z,11.85
2022-11-16T21:43:54.811Z,10.23
2022-11-16T21:46:24.844Z,10.27
2022-11-16T21:48:52.909Z,10.37
2022-11-16T21:51:21.926Z,10.43
2022-11-16T21:53:48.938Z,10.25
2022-11-16T21:56:18.272Z,10.27
2022-11-16T21:58:46.703Z,10.15
2022-11-16T22:01:16.102Z,10.53
2022-11-16T22:03:44.667Z,11.00
2022-11-16T22:06:34.346Z,11.07
2022-11-16T22:09:01.586Z,11.75
2022-11-16T22:11:28.430Z,10.80
2022-11-16T22:13:55.276Z,10.47
2022-11-16T22:16:25.004Z,10.57
2022-11-16T22:18:51.857Z,10.60
2022-11-16T22:21:18.684Z,10.90
2022-11-16T22:23:45.535Z,11.12
2022-11-16T22:26:14.610Z,10.13
2022-11-16T22:28:41.731Z,10.75
2022-11-16T22:31:11.970Z,10.52
2022-11-16T22:33:39.617Z,10.55
2022-11-16T22:36:10.647Z,10.85
2022-11-16T22:38:37.810Z,10.83
2022-11-16T22:41:05.047Z,10.52
2022-11-16T22:43:32.554Z,11.50
2022-11-16T22:46:01.762Z,10.82
2022-11-16T22:48:30.770Z,10.65
2022-11-16T22:51:05.997Z,11.17
2022-11-16T22:53:33.341Z,11.23
2022-11-16T22:56:07.290Z,10.35
2022-11-16T22:58:36.309Z,11.10
2022-11-16T23:01:04.081Z,11.70
2022-11-16T23:03:31.373Z,11.33
2022-11-16T23:05:58.594Z,11.02
2022-11-16T23:08:26.406Z,11.60
2022-11-16T23:11:27.343Z,11.57
2022-11-16T23:14:13.122Z,11.30
2022-11-16T23:16:40.864Z,11.07
2022-11-16T23:19:33.330Z,11.43
2022-11-16T23:22:19.149Z,11.70
2022-11-16T23:25:05.491Z,11.82
2022-11-16T23:27:40.837Z,11.73
2022-11-16T23:30:12.470Z,11.67
2022-11-16T23:32:40.779Z,11.65
2022-11-16T23:35:08.572Z,12.52
2022-11-16T23:37:35.404Z,13.00
2022-11-16T23:40:02.204Z,12.02
2022-11-16T23:42:47.724Z,12.20
2022-11-16T23:45:15.417Z,12.77
2022-11-16T23:47:42.251Z,11.90
2022-11-16T23:50:09.479Z,11.65
2022-11-16T23:52:36.256Z,12.65
2022-11-16T23:55:03.066Z,13.17
2022-11-16T23:57:30.028Z,11.80
2022-11-16T23:59:56.800Z,12.55
